sensor_id;sensor_type;location;lat;lon;timestamp;P1;durP1;ratioP1;P2;durP2;ratioP2
54307;SDS011;40208;39.778;2.710;2023-07-31T00:02:29;12.38;;;4.30;;
54307;SDS011;40208;39.778;2.710;2023-07-31T00:05:14;16.58;;;5.03;;
54307;SDS011;40208;39.778;2.710;2023-07-31T00:07:58;12.60;;;4.75;;
54307;SDS011;40208;39.778;2.710;2023-07-31T00:10:43;11.50;;;4.40;;
54307;SDS011;40208;39.778;2.710;2023-07-31T00:13:28;7.93;;;4.32;;
54307;SDS011;40208;39.778;2.710;2023-07-31T00:16:13;8.30;;;4.10;;
54307;SDS011;40208;39.778;2.710;2023-07-31T00:18:58;13.82;;;4.72;;
54307;SDS011;40208;39.778;2.710;2023-07-31T00:21:44;9.32;;;4.22;;
54307;SDS011;40208;39.778;2.710;2023-07-31T00:24:28;10.32;;;4.70;;
54307;SDS011;40208;39.778;2.710;2023-07-31T00:27:13;11.35;;;4.95;;
54307;SDS011;40208;39.778;2.710;2023-07-31T00:29:58;8.90;;;4.55;;
54307;SDS011;40208;39.778;2.710;2023-07-31T00:32:43;16.13;;;4.95;;
54307;SDS011;40208;39.778;2.710;2023-07-31T00:35:28;13.40;;;5.00;;
54307;SDS011;40208;39.778;2.710;2023-07-31T00:38:13;12.52;;;4.75;;
54307;SDS011;40208;39.778;2.710;2023-07-31T00:40:58;11.13;;;4.63;;
54307;SDS011;40208;39.778;2.710;2023-07-31T00:43:43;15.10;;;5.45;;
54307;SDS011;40208;39.778;2.710;2023-07-31T00:46:27;9.60;;;5.00;;
54307;SDS011;40208;39.778;2.710;2023-07-31T00:49:12;13.10;;;5.65;;
54307;SDS011;40208;39.778;2.710;2023-07-31T00:51:58;8.40;;;4.70;;
54307;SDS011;40208;39.778;2.710;2023-07-31T00:54:44;9.73;;;4.78;;
54307;SDS011;40208;39.778;2.710;2023-07-31T00:57:29;14.93;;;5.03;;
54307;SDS011;40208;39.778;2.710;2023-07-31T01:00:15;9.98;;;4.68;;
54307;SDS011;40208;39.778;2.710;2023-07-31T01:03:00;13.05;;;4.55;;
54307;SDS011;40208;39.778;2.710;2023-07-31T01:05:49;10.55;;;4.97;;
54307;SDS011;40208;39.778;2.710;2023-07-31T01:08:41;10.15;;;5.10;;
54307;SDS011;40208;39.778;2.710;2023-07-31T01:11:36;12.70;;;5.07;;
54307;SDS011;40208;39.778;2.710;2023-07-31T01:14:27;13.23;;;4.53;;
54307;SDS011;40208;39.778;2.710;2023-07-31T01:17:13;17.65;;;4.95;;
54307;SDS011;40208;39.778;2.710;2023-07-31T01:20:02;9.65;;;4.50;;
54307;SDS011;40208;39.778;2.710;2023-07-31T01:26:18;11.13;;;4.53;;
54307;SDS011;40208;39.778;2.710;2023-07-31T01:29:28;16.92;;;4.75;;
54307;SDS011;40208;39.778;2.710;2023-07-31T01:32:20;12.85;;;4.75;;
54307;SDS011;40208;39.778;2.710;2023-07-31T01:35:09;11.80;;;4.95;;
54307;SDS011;40208;39.778;2.710;2023-07-31T01:37:55;10.63;;;4.45;;
54307;SDS011;40208;39.778;2.710;2023-07-31T01:40:46;12.43;;;4.45;;
54307;SDS011;40208;39.778;2.710;2023-07-31T01:44:29;8.00;;;4.30;;
54307;SDS011;40208;39.778;2.710;2023-07-31T01:47:15;13.02;;;5.13;;
54307;SDS011;40208;39.778;2.710;2023-07-31T01:50:00;8.38;;;4.95;;
54307;SDS011;40208;39.778;2.710;2023-07-31T01:52:45;13.82;;;5.28;;
54307;SDS011;40208;39.778;2.710;2023-07-31T01:55:30;16.75;;;5.03;;
54307;SDS011;40208;39.778;2.710;2023-07-31T01:58:15;14.73;;;5.53;;
54307;SDS011;40208;39.778;2.710;2023-07-31T02:01:01;8.48;;;4.53;;
54307;SDS011;40208;39.778;2.710;2023-07-31T02:03:48;12.98;;;4.60;;
54307;SDS011;40208;39.778;2.710;2023-07-31T04:21:11;8.77;;;5.30;;
54307;SDS011;40208;39.778;2.710;2023-07-31T04:23:58;11.88;;;6.30;;
54307;SDS011;40208;39.778;2.710;2023-07-31T04:26:44;11.52;;;5.80;;
54307;SDS011;40208;39.778;2.710;2023-07-31T04:29:28;11.65;;;5.35;;
54307;SDS011;40208;39.778;2.710;2023-07-31T04:32:13;17.45;;;5.88;;
54307;SDS011;40208;39.778;2.710;2023-07-31T04:35:01;10.38;;;5.65;;
54307;SDS011;40208;39.778;2.710;2023-07-31T04:37:49;10.05;;;5.65;;
54307;SDS011;40208;39.778;2.710;2023-07-31T04:40:37;13.68;;;6.55;;
54307;SDS011;40208;39.778;2.710;2023-07-31T04:43:23;22.63;;;6.22;;
54307;SDS011;40208;39.778;2.710;2023-07-31T04:46:08;14.65;;;5.95;;
54307;SDS011;40208;39.778;2.710;2023-07-31T04:48:53;16.15;;;6.03;;
54307;SDS011;40208;39.778;2.710;2023-07-31T04:51:37;19.98;;;5.60;;
54307;SDS011;40208;39.778;2.710;2023-07-31T04:54:22;15.30;;;5.70;;
54307;SDS011;40208;39.778;2.710;2023-07-31T04:57:07;11.65;;;6.50;;
54307;SDS011;40208;39.778;2.710;2023-07-31T04:59:52;12.35;;;5.88;;
54307;SDS011;40208;39.778;2.710;2023-07-31T05:02:37;15.52;;;5.60;;
54307;SDS011;40208;39.778;2.710;2023-07-31T05:05:23;14.60;;;5.93;;
54307;SDS011;40208;39.778;2.710;2023-07-31T05:08:07;15.75;;;6.18;;
54307;SDS011;40208;39.778;2.710;2023-07-31T05:10:53;14.85;;;6.32;;
54307;SDS011;40208;39.778;2.710;2023-07-31T05:13:38;14.23;;;5.50;;
54307;SDS011;40208;39.778;2.710;2023-07-31T05:16:23;13.30;;;5.85;;
54307;SDS011;40208;39.778;2.710;2023-07-31T05:19:08;13.95;;;5.28;;
54307;SDS011;40208;39.778;2.710;2023-07-31T05:21:55;15.90;;;5.35;;
54307;SDS011;40208;39.778;2.710;2023-07-31T05:24:40;16.88;;;7.22;;
54307;SDS011;40208;39.778;2.710;2023-07-31T05:27:25;21.05;;;6.10;;
54307;SDS011;40208;39.778;2.710;2023-07-31T05:30:10;19.80;;;6.65;;
54307;SDS011;40208;39.778;2.710;2023-07-31T05:32:55;20.40;;;6.60;;
54307;SDS011;40208;39.778;2.710;2023-07-31T05:35:40;46.78;;;7.35;;
54307;SDS011;40208;39.778;2.710;2023-07-31T05:38:25;27.30;;;6.85;;
54307;SDS011;40208;39.778;2.710;2023-07-31T05:41:11;20.23;;;7.03;;
54307;SDS011;40208;39.778;2.710;2023-07-31T05:43:57;17.75;;;5.88;;
54307;SDS011;40208;39.778;2.710;2023-07-31T05:46:42;15.27;;;6.07;;
54307;SDS011;40208;39.778;2.710;2023-07-31T05:49:27;10.70;;;6.07;;
54307;SDS011;40208;39.778;2.710;2023-07-31T05:52:12;15.88;;;5.90;;
54307;SDS011;40208;39.778;2.710;2023-07-31T05:54:57;9.38;;;5.88;;
54307;SDS011;40208;39.778;2.710;2023-07-31T05:57:42;12.10;;;5.60;;
54307;SDS011;40208;39.778;2.710;2023-07-31T06:00:27;10.07;;;5.43;;
54307;SDS011;40208;39.778;2.710;2023-07-31T06:03:12;14.40;;;6.13;;
54307;SDS011;40208;39.778;2.710;2023-07-31T06:05:57;14.55;;;6.57;;
54307;SDS011;40208;39.778;2.710;2023-07-31T06:08:42;15.48;;;5.90;;
54307;SDS011;40208;39.778;2.710;2023-07-31T06:11:27;18.90;;;6.85;;
54307;SDS011;40208;39.778;2.710;2023-07-31T06:14:12;14.88;;;5.80;;
54307;SDS011;40208;39.778;2.710;2023-07-31T06:16:57;18.88;;;6.25;;
54307;SDS011;40208;39.778;2.710;2023-07-31T06:19:42;11.82;;;5.35;;
54307;SDS011;40208;39.778;2.710;2023-07-31T06:22:27;12.43;;;6.00;;
54307;SDS011;40208;39.778;2.710;2023-07-31T06:25:12;15.55;;;5.35;;
54307;SDS011;40208;39.778;2.710;2023-07-31T06:27:57;12.30;;;5.82;;
54307;SDS011;40208;39.778;2.710;2023-07-31T06:30:42;15.15;;;5.55;;
54307;SDS011;40208;39.778;2.710;2023-07-31T06:33:29;16.75;;;6.82;;
54307;SDS011;40208;39.778;2.710;2023-07-31T06:36:14;15.30;;;6.50;;
54307;SDS011;40208;39.778;2.710;2023-07-31T06:38:59;8.93;;;5.55;;
54307;SDS011;40208;39.778;2.710;2023-07-31T06:41:44;14.20;;;6.30;;
54307;SDS011;40208;39.778;2.710;2023-07-31T06:44:29;13.20;;;6.47;;
54307;SDS011;40208;39.778;2.710;2023-07-31T06:47:14;9.85;;;6.30;;
54307;SDS011;40208;39.778;2.710;2023-07-31T06:49:59;10.05;;;5.53;;
54307;SDS011;40208;39.778;2.710;2023-07-31T06:52:44;14.25;;;5.72;;
54307;SDS011;40208;39.778;2.710;2023-07-31T06:55:30;16.13;;;5.88;;
54307;SDS011;40208;39.778;2.710;2023-07-31T06:58:15;12.95;;;5.60;;
54307;SDS011;40208;39.778;2.710;2023-07-31T07:01:00;17.17;;;7.03;;
54307;SDS011;40208;39.778;2.710;2023-07-31T07:03:46;13.18;;;5.88;;
54307;SDS011;40208;39.778;2.710;2023-07-31T07:06:31;9.35;;;6.13;;
54307;SDS011;40208;39.778;2.710;2023-07-31T12:19:06;10.85;;;4.82;;
54307;SDS011;40208;39.778;2.710;2023-07-31T12:21:52;8.68;;;3.63;;
54307;SDS011;40208;39.778;2.710;2023-07-31T12:24:37;9.50;;;3.65;;
54307;SDS011;40208;39.778;2.710;2023-07-31T12:27:24;11.02;;;4.05;;
54307;SDS011;40208;39.778;2.710;2023-07-31T12:30:32;13.45;;;4.07;;
54307;SDS011;40208;39.778;2.710;2023-07-31T12:33:19;9.80;;;3.38;;
54307;SDS011;40208;39.778;2.710;2023-07-31T12:36:08;9.75;;;3.60;;
54307;SDS011;40208;39.778;2.710;2023-07-31T12:39:07;11.35;;;4.00;;
54307;SDS011;40208;39.778;2.710;2023-07-31T12:41:52;11.65;;;3.70;;
54307;SDS011;40208;39.778;2.710;2023-07-31T12:44:38;13.20;;;3.88;;
54307;SDS011;40208;39.778;2.710;2023-07-31T12:47:23;9.23;;;3.97;;
54307;SDS011;40208;39.778;2.710;2023-07-31T12:50:08;12.13;;;5.03;;
54307;SDS011;40208;39.778;2.710;2023-07-31T12:52:53;7.90;;;3.63;;
54307;SDS011;40208;39.778;2.710;2023-07-31T12:55:39;6.57;;;3.33;;
54307;SDS011;40208;39.778;2.710;2023-07-31T12:58:23;8.68;;;3.50;;
54307;SDS011;40208;39.778;2.710;2023-07-31T13:01:08;9.48;;;3.15;;
54307;SDS011;40208;39.778;2.710;2023-07-31T13:03:53;11.60;;;3.47;;
54307;SDS011;40208;39.778;2.710;2023-07-31T13:06:38;12.45;;;2.92;;
54307;SDS011;40208;39.778;2.710;2023-07-31T13:09:23;14.27;;;4.05;;
54307;SDS011;40208;39.778;2.710;2023-07-31T13:12:08;8.13;;;2.83;;
54307;SDS011;40208;39.778;2.710;2023-07-31T13:14:53;10.13;;;3.28;;
54307;SDS011;40208;39.778;2.710;2023-07-31T13:17:37;14.77;;;3.72;;
54307;SDS011;40208;39.778;2.710;2023-07-31T13:20:22;8.68;;;3.25;;
54307;SDS011;40208;39.778;2.710;2023-07-31T13:23:07;10.40;;;3.58;;
54307;SDS011;40208;39.778;2.710;2023-07-31T13:25:52;8.00;;;3.05;;
54307;SDS011;40208;39.778;2.710;2023-07-31T13:28:37;11.32;;;3.28;;
54307;SDS011;40208;39.778;2.710;2023-07-31T13:31:22;17.25;;;3.42;;
54307;SDS011;40208;39.778;2.710;2023-07-31T13:34:07;10.82;;;3.45;;
54307;SDS011;40208;39.778;2.710;2023-07-31T13:36:53;8.10;;;3.55;;
54307;SDS011;40208;39.778;2.710;2023-07-31T13:39:39;9.43;;;3.03;;
54307;SDS011;40208;39.778;2.710;2023-07-31T13:42:27;6.30;;;2.83;;
54307;SDS011;40208;39.778;2.710;2023-07-31T13:45:13;7.95;;;2.80;;
54307;SDS011;40208;39.778;2.710;2023-07-31T13:48:04;12.43;;;3.50;;
54307;SDS011;40208;39.778;2.710;2023-07-31T13:50:49;9.48;;;3.20;;
54307;SDS011;40208;39.778;2.710;2023-07-31T13:53:33;15.05;;;3.22;;
54307;SDS011;40208;39.778;2.710;2023-07-31T13:56:19;15.20;;;3.25;;
54307;SDS011;40208;39.778;2.710;2023-07-31T13:59:04;9.88;;;2.90;;
54307;SDS011;40208;39.778;2.710;2023-07-31T14:01:49;8.93;;;3.13;;
54307;SDS011;40208;39.778;2.710;2023-07-31T14:04:34;14.27;;;2.85;;
54307;SDS011;40208;39.778;2.710;2023-07-31T14:07:19;9.65;;;3.25;;
54307;SDS011;40208;39.778;2.710;2023-07-31T14:10:04;10.23;;;3.05;;
54307;SDS011;40208;39.778;2.710;2023-07-31T14:12:51;9.05;;;3.13;;
54307;SDS011;40208;39.778;2.710;2023-07-31T14:15:35;9.75;;;3.25;;
54307;SDS011;40208;39.778;2.710;2023-07-31T14:18:20;10.57;;;3.03;;
54307;SDS011;40208;39.778;2.710;2023-07-31T14:21:05;15.50;;;3.22;;
54307;SDS011;40208;39.778;2.710;2023-07-31T14:23:50;8.15;;;3.33;;
54307;SDS011;40208;39.778;2.710;2023-07-31T14:26:35;10.13;;;3.05;;
54307;SDS011;40208;39.778;2.710;2023-07-31T14:29:20;29.15;;;5.07;;
54307;SDS011;40208;39.778;2.710;2023-07-31T14:32:05;21.85;;;4.28;;
54307;SDS011;40208;39.778;2.710;2023-07-31T14:34:51;10.55;;;3.35;;
54307;SDS011;40208;39.778;2.710;2023-07-31T14:37:37;10.10;;;2.58;;
54307;SDS011;40208;39.778;2.710;2023-07-31T14:40:24;9.00;;;3.35;;
54307;SDS011;40208;39.778;2.710;2023-07-31T14:43:15;11.68;;;3.95;;
54307;SDS011;40208;39.778;2.710;2023-07-31T14:46:00;11.30;;;4.18;;
54307;SDS011;40208;39.778;2.710;2023-07-31T14:48:45;7.90;;;2.92;;
54307;SDS011;40208;39.778;2.710;2023-07-31T14:51:31;10.93;;;3.78;;
54307;SDS011;40208;39.778;2.710;2023-07-31T14:54:15;8.77;;;3.33;;
54307;SDS011;40208;39.778;2.710;2023-07-31T14:57:01;11.45;;;3.63;;
54307;SDS011;40208;39.778;2.710;2023-07-31T14:59:46;7.63;;;3.00;;
54307;SDS011;40208;39.778;2.710;2023-07-31T15:02:32;12.85;;;2.88;;
54307;SDS011;40208;39.778;2.710;2023-07-31T15:05:16;7.38;;;2.55;;
54307;SDS011;40208;39.778;2.710;2023-07-31T15:08:01;11.27;;;3.72;;
54307;SDS011;40208;39.778;2.710;2023-07-31T15:10:47;13.23;;;3.30;;
54307;SDS011;40208;39.778;2.710;2023-07-31T15:13:31;6.80;;;2.88;;
54307;SDS011;40208;39.778;2.710;2023-07-31T15:16:17;10.73;;;3.03;;
54307;SDS011;40208;39.778;2.710;2023-07-31T15:19:02;12.73;;;3.45;;
54307;SDS011;40208;39.778;2.710;2023-07-31T15:21:47;8.77;;;3.10;;
54307;SDS011;40208;39.778;2.710;2023-07-31T15:24:32;13.25;;;2.95;;
54307;SDS011;40208;39.778;2.710;2023-07-31T15:27:17;11.30;;;3.45;;
54307;SDS011;40208;39.778;2.710;2023-07-31T15:30:02;8.00;;;2.70;;
54307;SDS011;40208;39.778;2.710;2023-07-31T15:32:49;8.57;;;3.03;;
54307;SDS011;40208;39.778;2.710;2023-07-31T15:35:56;7.60;;;2.55;;
54307;SDS011;40208;39.778;2.710;2023-07-31T15:38:42;10.07;;;3.55;;
54307;SDS011;40208;39.778;2.710;2023-07-31T15:41:27;13.13;;;3.42;;
54307;SDS011;40208;39.778;2.710;2023-07-31T15:44:14;11.82;;;3.40;;
54307;SDS011;40208;39.778;2.710;2023-07-31T15:46:59;10.27;;;3.17;;
54307;SDS011;40208;39.778;2.710;2023-07-31T15:49:44;9.80;;;2.92;;
54307;SDS011;40208;39.778;2.710;2023-07-31T15:52:30;12.48;;;2.97;;
54307;SDS011;40208;39.778;2.710;2023-07-31T15:55:18;7.45;;;2.95;;
54307;SDS011;40208;39.778;2.710;2023-07-31T15:58:03;7.78;;;2.70;;
54307;SDS011;40208;39.778;2.710;2023-07-31T16:00:47;10.88;;;3.28;;
54307;SDS011;40208;39.778;2.710;2023-07-31T16:03:38;14.02;;;3.28;;
54307;SDS011;40208;39.778;2.710;2023-07-31T16:06:23;11.10;;;3.28;;
54307;SDS011;40208;39.778;2.710;2023-07-31T16:09:08;10.70;;;3.10;;
54307;SDS011;40208;39.778;2.710;2023-07-31T16:11:53;8.05;;;2.80;;
54307;SDS011;40208;39.778;2.710;2023-07-31T16:14:38;12.25;;;3.22;;
54307;SDS011;40208;39.778;2.710;2023-07-31T16:17:23;8.45;;;3.00;;
54307;SDS011;40208;39.778;2.710;2023-07-31T16:20:08;15.60;;;3.75;;
54307;SDS011;40208;39.778;2.710;2023-07-31T16:22:54;11.00;;;3.00;;
54307;SDS011;40208;39.778;2.710;2023-07-31T16:25:39;11.80;;;3.95;;
54307;SDS011;40208;39.778;2.710;2023-07-31T16:28:24;12.43;;;3.13;;
54307;SDS011;40208;39.778;2.710;2023-07-31T16:31:09;11.77;;;2.97;;
54307;SDS011;40208;39.778;2.710;2023-07-31T16:33:54;10.50;;;2.70;;
54307;SDS011;40208;39.778;2.710;2023-07-31T16:36:39;13.70;;;3.28;;
54307;SDS011;40208;39.778;2.710;2023-07-31T16:39:24;8.40;;;3.10;;
54307;SDS011;40208;39.778;2.710;2023-07-31T16:42:09;11.65;;;4.35;;
54307;SDS011;40208;39.778;2.710;2023-07-31T16:44:54;7.63;;;3.08;;
54307;SDS011;40208;39.778;2.710;2023-07-31T16:47:39;15.52;;;4.53;;
54307;SDS011;40208;39.778;2.710;2023-07-31T16:50:24;13.85;;;3.28;;
54307;SDS011;40208;39.778;2.710;2023-07-31T16:53:09;10.00;;;3.60;;
54307;SDS011;40208;39.778;2.710;2023-07-31T16:55:54;10.68;;;3.90;;
54307;SDS011;40208;39.778;2.710;2023-07-31T16:58:39;17.63;;;3.75;;
54307;SDS011;40208;39.778;2.710;2023-07-31T17:01:24;14.98;;;3.28;;
54307;SDS011;40208;39.778;2.710;2023-07-31T17:04:15;11.43;;;3.92;;
54307;SDS011;40208;39.778;2.710;2023-07-31T17:07:00;11.20;;;3.50;;
54307;SDS011;40208;39.778;2.710;2023-07-31T17:09:45;13.05;;;3.08;;
54307;SDS011;40208;39.778;2.710;2023-07-31T17:12:30;11.27;;;3.38;;
54307;SDS011;40208;39.778;2.710;2023-07-31T17:15:15;11.20;;;3.22;;
54307;SDS011;40208;39.778;2.710;2023-07-31T17:18:00;9.57;;;3.25;;
54307;SDS011;40208;39.778;2.710;2023-07-31T17:20:45;11.93;;;2.65;;
54307;SDS011;40208;39.778;2.710;2023-07-31T17:23:30;12.95;;;2.70;;
54307;SDS011;40208;39.778;2.710;2023-07-31T17:26:15;9.68;;;2.58;;
54307;SDS011;40208;39.778;2.710;2023-07-31T17:29:00;14.70;;;3.38;;
54307;SDS011;40208;39.778;2.710;2023-07-31T17:31:45;10.35;;;3.05;;
54307;SDS011;40208;39.778;2.710;2023-07-31T17:34:30;7.38;;;2.97;;
54307;SDS011;40208;39.778;2.710;2023-07-31T17:37:16;15.85;;;3.20;;
54307;SDS011;40208;39.778;2.710;2023-07-31T17:40:01;10.27;;;2.80;;
54307;SDS011;40208;39.778;2.710;2023-07-31T17:42:46;10.90;;;2.95;;
54307;SDS011;40208;39.778;2.710;2023-07-31T17:45:32;9.93;;;3.20;;
54307;SDS011;40208;39.778;2.710;2023-07-31T17:48:21;8.38;;;2.85;;
54307;SDS011;40208;39.778;2.710;2023-07-31T17:51:06;5.95;;;2.50;;
54307;SDS011;40208;39.778;2.710;2023-07-31T17:53:51;11.07;;;3.40;;
54307;SDS011;40208;39.778;2.710;2023-07-31T17:56:36;9.75;;;2.95;;
54307;SDS011;40208;39.778;2.710;2023-07-31T17:59:22;10.40;;;3.22;;
54307;SDS011;40208;39.778;2.710;2023-07-31T18:02:07;14.32;;;3.28;;
54307;SDS011;40208;39.778;2.710;2023-07-31T18:04:52;9.68;;;3.13;;
54307;SDS011;40208;39.778;2.710;2023-07-31T18:07:36;6.22;;;2.83;;
54307;SDS011;40208;39.778;2.710;2023-07-31T18:10:21;13.05;;;3.58;;
54307;SDS011;40208;39.778;2.710;2023-07-31T18:13:06;16.05;;;3.50;;
54307;SDS011;40208;39.778;2.710;2023-07-31T18:15:51;17.40;;;3.78;;
54307;SDS011;40208;39.778;2.710;2023-07-31T18:18:36;12.82;;;3.15;;
54307;SDS011;40208;39.778;2.710;2023-07-31T18:21:21;16.10;;;3.17;;
54307;SDS011;40208;39.778;2.710;2023-07-31T18:24:06;15.77;;;3.28;;
54307;SDS011;40208;39.778;2.710;2023-07-31T18:26:51;14.63;;;3.22;;
54307;SDS011;40208;39.778;2.710;2023-07-31T18:29:36;8.88;;;3.20;;
54307;SDS011;40208;39.778;2.710;2023-07-31T18:32:21;10.95;;;3.13;;
54307;SDS011;40208;39.778;2.710;2023-07-31T18:35:06;15.32;;;3.42;;
54307;SDS011;40208;39.778;2.710;2023-07-31T18:37:51;9.35;;;3.70;;
54307;SDS011;40208;39.778;2.710;2023-07-31T18:40:36;10.43;;;3.20;;
54307;SDS011;40208;39.778;2.710;2023-07-31T18:43:24;10.05;;;2.92;;
54307;SDS011;40208;39.778;2.710;2023-07-31T18:46:10;9.50;;;3.63;;
